createdAt,value
2019-02-09T00:00:21.769Z,1003.15
2019-02-09T00:01:21.783Z,1003.16
2019-02-09T00:02:21.761Z,1003.16
2019-02-09T00:03:21.766Z,1003.16
2019-02-09T00:04:21.753Z,1003.08
2019-02-09T00:05:21.819Z,1003.08
2019-02-09T00:06:21.792Z,1003.05
2019-02-09T00:07:21.793Z,1002.94
2019-02-09T00:08:21.778Z,1002.97
2019-02-09T00:09:21.811Z,1002.91
2019-02-09T00:10:21.769Z,1002.89
2019-02-09T00:11:21.802Z,1002.90
2019-02-09T00:12:21.840Z,1002.80
2019-02-09T00:13:21.833Z,1002.80
2019-02-09T00:14:21.843Z,1002.78
2019-02-09T00:15:21.806Z,1002.80
2019-02-09T00:16:21.820Z,1002.79
2019-02-09T00:17:21.845Z,1002.81
2019-02-09T00:18:21.827Z,1002.77
2019-02-09T00:19:21.884Z,1002.70
2019-02-09T00:20:21.846Z,1002.69
2019-02-09T00:21:21.859Z,1002.67
2019-02-09T00:22:21.884Z,1002.63
2019-02-09T00:23:21.837Z,1002.57
2019-02-09T00:24:21.833Z,1002.53
2019-02-09T00:25:21.932Z,1002.52
2019-02-09T00:26:21.855Z,1002.53
2019-02-09T00:27:21.852Z,1002.56
2019-02-09T00:28:21.863Z,1002.54
2019-02-09T00:29:21.927Z,1002.47
2019-02-09T00:30:21.872Z,1002.46
2019-02-09T00:31:21.887Z,1002.39
2019-02-09T00:32:21.910Z,1002.42
2019-02-09T00:33:21.917Z,1002.39
2019-02-09T00:34:21.937Z,1002.35
2019-02-09T00:35:21.906Z,1002.34
2019-02-09T00:36:21.905Z,1002.36
2019-02-09T00:37:21.918Z,1002.40
2019-02-09T00:38:21.940Z,1002.38
2019-02-09T00:39:21.940Z,1002.40
2019-02-09T00:40:21.957Z,1002.40
2019-02-09T00:41:21.908Z,1002.38
2019-02-09T00:42:21.969Z,1002.38
2019-02-09T00:43:21.931Z,1002.36
2019-02-09T00:44:21.953Z,1002.33
2019-02-09T00:45:21.959Z,1002.38
2019-02-09T00:46:21.943Z,1002.38
2019-02-09T00:47:21.955Z,1002.38
2019-02-09T00:48:21.952Z,1002.39
2019-02-09T00:49:21.948Z,1002.45
2019-02-09T00:50:21.986Z,1002.39
2019-02-09T00:51:21.977Z,1002.38
2019-02-09T00:52:21.948Z,1002.34
2019-02-09T00:53:21.979Z,1002.32
2019-02-09T00:54:21.988Z,1002.32
2019-02-09T00:55:22.027Z,1002.31
2019-02-09T00:56:22.054Z,1002.24
2019-02-09T00:57:21.966Z,1002.23
2019-02-09T00:58:21.982Z,1002.21
2019-02-09T00:59:22.002Z,1002.19
2019-02-09T01:00:22.070Z,1002.14
2019-02-09T01:01:22.039Z,1002.11
2019-02-09T01:02:22.059Z,1002.10
2019-02-09T01:03:22.053Z,1002.14
2019-02-09T01:04:22.058Z,1002.12
2019-02-09T01:05:22.010Z,1002.11
2019-02-09T01:06:22.025Z,1002.15
2019-02-09T01:07:22.054Z,1002.16
2019-02-09T01:08:22.034Z,1002.18
2019-02-09T01:09:22.073Z,1002.10
2019-02-09T01:10:22.058Z,1002.04
2019-02-09T01:11:22.053Z,1002.04
2019-02-09T01:12:22.070Z,1002.04
2019-02-09T01:13:22.067Z,1001.97
2019-02-09T01:14:22.083Z,1002.01
2019-02-09T01:15:22.081Z,1001.98
2019-02-09T01:16:22.059Z,1002.03
2019-02-09T01:17:22.111Z,1002.00
2019-02-09T01:18:22.051Z,1002.00
2019-02-09T01:19:22.073Z,1002.01
2019-02-09T01:20:22.139Z,1001.99
2019-02-09T01:21:22.103Z,1001.91
2019-02-09T01:22:22.135Z,1001.90
2019-02-09T01:23:22.082Z,1001.88
2019-02-09T01:24:22.102Z,1001.91
2019-02-09T01:25:22.121Z,1001.82
2019-02-09T01:26:22.179Z,1001.87
2019-02-09T01:27:22.130Z,1001.76
2019-02-09T01:28:22.200Z,1001.74
2019-02-09T01:29:22.113Z,1001.75
2019-02-09T01:30:22.121Z,1001.72
2019-02-09T01:31:22.157Z,1001.72
2019-02-09T01:32:22.144Z,1001.66
2019-02-09T01:33:22.130Z,1001.65
2019-02-09T01:34:22.197Z,1001.56
2019-02-09T01:35:22.189Z,1001.56
2019-02-09T01:36:22.178Z,1001.51
2019-02-09T01:37:22.206Z,1001.49
2019-02-09T01:38:22.211Z,1001.46
2019-02-09T01:39:22.172Z,1001.45
2019-02-09T01:40:22.176Z,1001.37
2019-02-09T01:41:22.202Z,1001.40
2019-02-09T01:42:22.186Z,1001.38
2019-02-09T01:43:22.218Z,1001.38
2019-02-09T01:44:22.177Z,1001.33
2019-02-09T01:45:22.182Z,1001.30
2019-02-09T01:46:22.240Z,1001.38
2019-02-09T01:47:22.194Z,1001.29
2019-02-09T01:48:22.210Z,1001.30
2019-02-09T01:49:22.220Z,1001.26
2019-02-09T01:50:22.228Z,1001.29
2019-02-09T01:51:22.222Z,1001.25
2019-02-09T01:52:22.225Z,1001.25
2019-02-09T01:53:22.302Z,1001.22
2019-02-09T01:54:22.248Z,1001.20
2019-02-09T01:55:22.279Z,1001.11
2019-02-09T01:56:22.275Z,1001.09
2019-02-09T01:57:22.249Z,1001.08
2019-02-09T01:58:22.252Z,1001.03
2019-02-09T01:59:22.240Z,1001.02
2019-02-09T02:00:22.270Z,1001.03
2019-02-09T02:01:22.276Z,1001.06
2019-02-09T02:02:22.284Z,1001.04
2019-02-09T02:03:22.275Z,1001.02
2019-02-09T02:04:22.297Z,1000.99
2019-02-09T02:05:22.278Z,1000.96
2019-02-09T02:06:22.321Z,1000.95
2019-02-09T02:07:22.403Z,1000.90
2019-02-09T02:08:22.317Z,1000.92
2019-02-09T02:09:22.288Z,1000.93
2019-02-09T02:10:22.290Z,1000.88
2019-02-09T02:11:22.324Z,1000.88
2019-02-09T02:12:22.333Z,1000.85
2019-02-09T02:13:22.430Z,1000.83
2019-02-09T02:14:22.330Z,1000.87
2019-02-09T02:15:22.353Z,1000.74
2019-02-09T02:16:22.345Z,1000.75
2019-02-09T02:17:22.433Z,1000.66
2019-02-09T02:18:22.350Z,1000.59
2019-02-09T02:19:22.413Z,1000.53
2019-02-09T02:20:22.358Z,1000.55
2019-02-09T02:21:22.430Z,1000.51
2019-02-09T02:22:22.373Z,1000.48
2019-02-09T02:23:22.376Z,1000.46
2019-02-09T02:24:22.361Z,1000.50
2019-02-09T02:25:23.683Z,1000.48
2019-02-09T02:26:22.367Z,1000.45
2019-02-09T02:27:22.362Z,1000.44
2019-02-09T02:28:22.492Z,1000.39
2019-02-09T02:29:22.403Z,1000.34
2019-02-09T02:30:23.268Z,1000.28
2019-02-09T02:31:22.433Z,1000.31
2019-02-09T02:32:22.411Z,1000.35
2019-02-09T02:33:22.391Z,1000.37
2019-02-09T02:34:22.451Z,1000.32
2019-02-09T02:35:22.410Z,1000.35
2019-02-09T02:36:22.411Z,1000.32
2019-02-09T02:37:22.414Z,1000.29
2019-02-09T02:38:22.422Z,1000.30
2019-02-09T02:39:22.451Z,1000.29
2019-02-09T02:40:22.464Z,1000.21
2019-02-09T02:41:22.458Z,1000.22
2019-02-09T02:42:22.495Z,1000.21
2019-02-09T02:43:22.428Z,1000.18
2019-02-09T02:44:22.486Z,1000.16
2019-02-09T02:45:22.477Z,1000.19
2019-02-09T02:46:22.481Z,1000.15
2019-02-09T02:47:22.443Z,1000.12
2019-02-09T02:48:22.473Z,1000.14
2019-02-09T02:49:22.519Z,1000.13
2019-02-09T02:50:22.493Z,1000.08
2019-02-09T02:51:22.493Z,1000.07
2019-02-09T02:52:22.509Z,1000.04
2019-02-09T02:53:22.487Z,1000.04
2019-02-09T02:54:22.548Z,999.95
2019-02-09T02:55:22.524Z,999.94
2019-02-09T02:56:22.527Z,999.95
2019-02-09T02:57:22.504Z,999.86
2019-02-09T02:58:22.522Z,999.90
2019-02-09T02:59:22.490Z,999.90
2019-02-09T03:00:30.993Z,999.92
2019-02-09T03:01:22.548Z,999.92
2019-02-09T03:02:22.564Z,999.94
2019-02-09T03:03:22.522Z,999.89
2019-02-09T03:04:22.531Z,999.88
2019-02-09T03:05:22.555Z,999.90
2019-02-09T03:06:22.555Z,999.86
2019-02-09T03:07:22.574Z,999.82
2019-02-09T03:08:22.538Z,999.76
2019-02-09T03:09:22.545Z,999.73
2019-02-09T03:10:22.586Z,999.78
2019-02-09T03:11:22.558Z,999.76
2019-02-09T03:12:22.628Z,999.79
2019-02-09T03:13:22.552Z,999.76
2019-02-09T03:14:22.585Z,999.73
2019-02-09T03:15:22.569Z,999.69
2019-02-09T03:16:22.567Z,999.66
2019-02-09T03:17:22.575Z,999.59
2019-02-09T03:18:22.647Z,999.56
2019-02-09T03:19:22.580Z,999.51
2019-02-09T03:20:22.607Z,999.49
2019-02-09T03:21:22.588Z,999.43
2019-02-09T03:22:22.613Z,999.40
2019-02-09T03:23:22.631Z,999.37
2019-02-09T03:24:22.662Z,999.34
2019-02-09T03:25:22.682Z,999.28
2019-02-09T03:26:22.630Z,999.27
2019-02-09T03:27:22.601Z,999.23
2019-02-09T03:28:22.728Z,999.18
2019-02-09T03:29:22.632Z,999.16
2019-02-09T03:30:22.641Z,999.21
2019-02-09T03:31:22.652Z,999.19
2019-02-09T03:32:22.668Z,999.21
2019-02-09T03:33:22.641Z,999.15
2019-02-09T03:34:22.692Z,999.12
2019-02-09T03:35:22.662Z,999.12
2019-02-09T03:36:22.659Z,999.11
2019-02-09T03:37:22.672Z,999.08
2019-02-09T03:38:22.645Z,999.01
2019-02-09T03:39:22.652Z,998.97
2019-02-09T03:40:22.695Z,999.00
2019-02-09T03:41:22.656Z,999.03
2019-02-09T03:42:22.690Z,998.94
2019-02-09T03:43:22.698Z,998.89
2019-02-09T03:44:22.695Z,998.98
2019-02-09T03:45:22.704Z,998.95
2019-02-09T03:46:22.717Z,998.90
2019-02-09T03:47:22.680Z,998.88
2019-02-09T03:48:22.685Z,998.87
2019-02-09T03:49:22.717Z,998.85
2019-02-09T03:50:22.744Z,998.85
2019-02-09T03:51:22.728Z,998.78
2019-02-09T03:52:22.735Z,998.82
2019-02-09T03:53:22.794Z,998.80
2019-02-09T03:54:22.729Z,998.76
2019-02-09T03:55:22.777Z,998.82
2019-02-09T03:56:22.745Z,998.83
2019-02-09T03:57:22.728Z,998.78
2019-02-09T03:58:22.756Z,998.79
2019-02-09T03:59:22.749Z,998.70
2019-02-09T04:00:22.774Z,998.74
2019-02-09T04:01:22.825Z,998.73
2019-02-09T04:02:22.789Z,998.79
2019-02-09T04:03:22.789Z,998.81
2019-02-09T04:04:22.780Z,998.80
2019-02-09T04:05:22.763Z,998.73
2019-02-09T04:06:22.799Z,998.72
2019-02-09T04:07:22.848Z,998.71
2019-02-09T04:08:22.797Z,998.73
2019-02-09T04:09:22.839Z,998.73
2019-02-09T04:10:22.810Z,998.66
2019-02-09T04:11:22.820Z,998.68
2019-02-09T04:12:22.860Z,998.65
2019-02-09T04:13:22.792Z,998.69
2019-02-09T04:14:22.868Z,998.70
2019-02-09T04:15:22.834Z,998.74
2019-02-09T04:16:22.840Z,998.70
2019-02-09T04:17:22.868Z,998.73
2019-02-09T04:18:22.833Z,998.70
2019-02-09T04:19:22.853Z,998.65
2019-02-09T04:20:22.848Z,998.64
2019-02-09T04:21:22.848Z,998.57
2019-02-09T04:22:22.890Z,998.50
2019-02-09T04:23:22.861Z,998.55
2019-02-09T04:24:22.855Z,998.52
2019-02-09T04:25:22.876Z,998.57
2019-02-09T04:26:22.911Z,998.48
2019-02-09T04:27:22.903Z,998.60
2019-02-09T04:28:22.889Z,998.63
2019-02-09T04:29:22.864Z,998.52
2019-02-09T04:30:22.908Z,998.53
2019-02-09T04:31:22.915Z,998.52
2019-02-09T04:32:22.915Z,998.55
2019-02-09T04:33:22.973Z,998.50
2019-02-09T04:34:22.892Z,998.47
2019-02-09T04:35:22.947Z,998.52
2019-02-09T04:36:22.916Z,998.58
2019-02-09T04:37:22.914Z,998.60
2019-02-09T04:38:22.929Z,998.57
2019-02-09T04:39:22.967Z,998.50
2019-02-09T04:40:22.920Z,998.52
2019-02-09T04:41:22.933Z,998.41
2019-02-09T04:42:22.955Z,998.46
2019-02-09T04:43:22.942Z,998.45
2019-02-09T04:44:23.058Z,998.49
2019-02-09T04:45:22.939Z,998.42
2019-02-09T04:46:22.977Z,998.37
2019-02-09T04:47:22.990Z,998.30
2019-02-09T04:48:22.964Z,998.25
2019-02-09T04:49:22.955Z,998.29
2019-02-09T04:50:23.021Z,998.31
2019-02-09T04:51:23.032Z,998.38
2019-02-09T04:52:23.003Z,998.34
2019-02-09T04:53:23.012Z,998.30
2019-02-09T04:54:23.029Z,998.29
2019-02-09T04:55:23.005Z,998.23
2019-02-09T04:56:23.009Z,998.17
2019-02-09T04:57:23.039Z,998.15
2019-02-09T04:58:23.014Z,998.13
2019-02-09T04:59:23.025Z,998.14
2019-02-09T05:00:23.058Z,998.06
2019-02-09T05:01:23.076Z,998.19
2019-02-09T05:02:23.039Z,998.21
2019-02-09T05:03:23.063Z,998.11
2019-02-09T05:04:23.047Z,998.09
2019-02-09T05:05:23.058Z,998.07
2019-02-09T05:06:23.076Z,998.07
2019-02-09T05:07:23.124Z,998.07
2019-02-09T05:08:23.061Z,998.07
2019-02-09T05:09:23.085Z,998.13
2019-02-09T05:10:23.083Z,998.09
2019-02-09T05:11:23.124Z,998.08
2019-02-09T05:12:23.098Z,997.98
2019-02-09T05:13:23.106Z,998.06
2019-02-09T05:14:23.080Z,998.03
2019-02-09T05:15:23.109Z,998.00
2019-02-09T05:16:23.131Z,997.97
2019-02-09T05:17:23.123Z,997.97
2019-02-09T05:18:23.121Z,998.03
2019-02-09T05:19:23.099Z,998.00
2019-02-09T05:20:24.610Z,998.01
2019-02-09T05:21:23.138Z,998.04
2019-02-09T05:22:23.174Z,998.04
2019-02-09T05:23:23.119Z,998.03
2019-02-09T05:24:23.161Z,998.01
2019-02-09T05:25:23.169Z,998.00
2019-02-09T05:26:23.148Z,998.04
2019-02-09T05:27:23.194Z,998.07
2019-02-09T05:28:23.174Z,998.03
2019-02-09T05:29:23.162Z,998.07
2019-02-09T05:30:23.183Z,998.11
2019-02-09T05:31:23.761Z,998.01
2019-02-09T05:32:23.211Z,998.03
2019-02-09T05:33:23.223Z,998.04
2019-02-09T05:34:23.175Z,998.05
2019-02-09T05:35:23.182Z,998.07
2019-02-09T05:36:23.198Z,998.05
2019-02-09T05:37:23.225Z,998.09
2019-02-09T05:38:23.297Z,998.06
2019-02-09T05:39:23.222Z,998.07
2019-02-09T05:40:23.254Z,997.97
2019-02-09T05:41:23.265Z,998.04
2019-02-09T05:42:23.217Z,998.01
2019-02-09T05:43:23.311Z,998.03
2019-02-09T05:44:23.273Z,998.08
2019-02-09T05:45:23.223Z,998.03
2019-02-09T05:46:23.295Z,998.06
2019-02-09T05:47:23.287Z,998.07
2019-02-09T05:48:23.263Z,998.01
2019-02-09T05:49:23.350Z,998.00
2019-02-09T05:50:23.262Z,998.04
2019-02-09T05:51:23.358Z,998.05
2019-02-09T05:52:23.301Z,997.96
2019-02-09T05:53:23.290Z,998.08
2019-02-09T05:54:23.286Z,998.07
2019-02-09T05:55:23.341Z,998.04
2019-02-09T05:56:23.365Z,998.09
2019-02-09T05:57:23.389Z,998.09
2019-02-09T05:58:23.352Z,998.10
2019-02-09T05:59:23.309Z,998.08
2019-02-09T06:00:23.385Z,998.14
2019-02-09T06:01:31.634Z,998.09
2019-02-09T06:02:23.365Z,998.13
2019-02-09T06:03:23.455Z,998.14
2019-02-09T06:04:23.380Z,998.11
2019-02-09T06:05:23.434Z,998.04
2019-02-09T06:06:23.405Z,998.00
2019-02-09T06:07:23.345Z,998.00
2019-02-09T06:08:23.353Z,997.95
2019-02-09T06:09:23.369Z,997.97
2019-02-09T06:10:23.427Z,997.95
2019-02-09T06:11:23.385Z,998.01
2019-02-09T06:12:23.365Z,998.01
2019-02-09T06:13:23.381Z,998.08
2019-02-09T06:14:23.364Z,998.06
2019-02-09T06:15:23.386Z,998.09
2019-02-09T06:16:23.390Z,998.07
2019-02-09T06:17:23.380Z,998.11
2019-02-09T06:18:23.407Z,998.11
2019-02-09T06:19:23.397Z,998.12
2019-02-09T06:20:23.406Z,998.12
2019-02-09T06:21:23.428Z,998.08
2019-02-09T06:22:23.428Z,998.09
2019-02-09T06:23:23.423Z,998.11
2019-02-09T06:24:23.428Z,998.16
2019-02-09T06:25:23.501Z,998.17
2019-02-09T06:26:23.436Z,998.15
2019-02-09T06:27:23.422Z,998.17
2019-02-09T06:28:23.428Z,998.16
2019-02-09T06:29:23.458Z,998.12
2019-02-09T06:30:23.472Z,998.14
2019-02-09T06:31:23.500Z,998.11
2019-02-09T06:32:23.499Z,998.06
2019-02-09T06:33:23.462Z,998.13
2019-02-09T06:34:23.492Z,998.13
2019-02-09T06:35:23.466Z,998.16
2019-02-09T06:36:23.480Z,998.12
2019-02-09T06:37:23.506Z,998.13
2019-02-09T06:38:23.488Z,998.12
2019-02-09T06:39:23.482Z,998.13
2019-02-09T06:40:23.489Z,998.09
2019-02-09T06:41:23.493Z,998.08
2019-02-09T06:42:23.536Z,998.09
2019-02-09T06:43:23.516Z,998.07
2019-02-09T06:44:23.520Z,998.12
2019-02-09T06:45:23.527Z,998.15
2019-02-09T06:46:23.538Z,998.19
2019-02-09T06:47:23.519Z,998.19
2019-02-09T06:48:23.574Z,998.21
2019-02-09T06:49:23.532Z,998.26
2019-02-09T06:50:23.625Z,998.18
2019-02-09T06:51:23.731Z,998.15
2019-02-09T06:52:23.551Z,998.14
2019-02-09T06:53:23.577Z,998.17
2019-02-09T06:54:23.560Z,998.15
2019-02-09T06:55:23.567Z,998.23
2019-02-09T06:56:23.571Z,998.24
2019-02-09T06:57:23.595Z,998.28
2019-02-09T06:58:23.609Z,998.32
2019-02-09T06:59:23.602Z,998.32
2019-02-09T07:00:23.594Z,998.35
2019-02-09T07:01:23.603Z,998.31
2019-02-09T07:02:23.602Z,998.32
2019-02-09T07:03:23.617Z,998.29
2019-02-09T07:04:23.613Z,998.29
2019-02-09T07:05:23.691Z,998.25
2019-02-09T07:06:23.625Z,998.22
2019-02-09T07:07:23.641Z,998.26
2019-02-09T07:08:23.636Z,998.29
2019-02-09T07:09:23.703Z,998.30
2019-02-09T07:10:23.648Z,998.33
2019-02-09T07:11:23.638Z,998.28
2019-02-09T07:12:23.654Z,998.23
2019-02-09T07:13:23.645Z,998.19
2019-02-09T07:14:23.684Z,998.23
2019-02-09T07:15:23.764Z,998.26
2019-02-09T07:16:23.691Z,998.29
2019-02-09T07:17:23.666Z,998.28
2019-02-09T07:18:23.678Z,998.29
2019-02-09T07:19:23.683Z,998.29
2019-02-09T07:20:23.766Z,998.31
2019-02-09T07:21:23.704Z,998.28
2019-02-09T07:22:23.712Z,998.32
2019-02-09T07:23:23.715Z,998.37
2019-02-09T07:24:23.707Z,998.38
2019-02-09T07:25:23.718Z,998.44
2019-02-09T07:26:23.791Z,998.49
2019-02-09T07:27:23.718Z,998.51
2019-02-09T07:28:23.723Z,998.49
2019-02-09T07:29:23.733Z,998.52
2019-02-09T07:30:23.745Z,998.51
2019-02-09T07:31:23.785Z,998.51
2019-02-09T07:32:23.735Z,998.50
2019-02-09T07:33:23.740Z,998.51
2019-02-09T07:34:23.769Z,998.49
2019-02-09T07:35:23.786Z,998.51
2019-02-09T07:36:23.888Z,998.49
2019-02-09T07:37:23.890Z,998.48
2019-02-09T07:38:23.822Z,998.50
2019-02-09T07:39:23.780Z,998.48
2019-02-09T07:40:23.808Z,998.49
2019-02-09T07:41:23.809Z,998.47
2019-02-09T07:42:23.839Z,998.44
2019-02-09T07:43:23.802Z,998.43
2019-02-09T07:44:23.798Z,998.41
2019-02-09T07:45:23.806Z,998.44
2019-02-09T07:46:23.831Z,998.44
2019-02-09T07:47:23.888Z,998.51
2019-02-09T07:48:24.141Z,998.44
2019-02-09T07:49:23.839Z,998.44
2019-02-09T07:50:23.868Z,998.43
2019-02-09T07:51:23.900Z,998.48
2019-02-09T07:52:23.882Z,998.47
2019-02-09T07:53:23.896Z,998.44
2019-02-09T07:54:23.904Z,998.46
2019-02-09T07:55:23.858Z,998.46
2019-02-09T07:56:23.867Z,998.51
2019-02-09T07:57:23.929Z,998.50
2019-02-09T07:58:23.918Z,998.50
2019-02-09T07:59:23.905Z,998.48
2019-02-09T08:00:23.908Z,998.51
2019-02-09T08:01:23.901Z,998.51
2019-02-09T08:02:23.910Z,998.51
2019-02-09T08:03:23.968Z,998.48
2019-02-09T08:04:23.891Z,998.49
2019-02-09T08:05:23.912Z,998.54
2019-02-09T08:06:23.915Z,998.48
2019-02-09T08:07:23.964Z,998.47
2019-02-09T08:08:23.972Z,998.49
2019-02-09T08:09:23.975Z,998.53
2019-02-09T08:10:24.184Z,998.52
2019-02-09T08:11:23.954Z,998.58
2019-02-09T08:12:23.949Z,998.58
2019-02-09T08:13:23.964Z,998.56
2019-02-09T08:14:23.999Z,998.60
2019-02-09T08:15:23.974Z,998.61
2019-02-09T08:16:23.982Z,998.62
2019-02-09T08:17:23.970Z,998.66
2019-02-09T08:18:24.001Z,998.62
2019-02-09T08:19:23.996Z,998.66
2019-02-09T08:20:24.020Z,998.61
2019-02-09T08:21:23.999Z,998.56
2019-02-09T08:22:23.998Z,998.56
2019-02-09T08:23:23.998Z,998.59
2019-02-09T08:24:24.008Z,998.61
2019-02-09T08:25:24.093Z,998.56
2019-02-09T08:26:24.038Z,998.53
2019-02-09T08:27:24.041Z,998.54
2019-02-09T08:28:24.325Z,998.53
2019-02-09T08:29:24.246Z,998.56
2019-02-09T08:30:24.089Z,998.61
2019-02-09T08:31:28.277Z,998.59
2019-02-09T08:32:24.708Z,998.59
2019-02-09T08:33:24.364Z,998.60
2019-02-09T08:34:24.474Z,998.57
2019-02-09T08:35:24.313Z,998.58
2019-02-09T08:36:24.311Z,998.55
2019-02-09T08:37:24.101Z,998.50
2019-02-09T08:38:24.386Z,998.53
2019-02-09T08:39:24.218Z,998.47
2019-02-09T08:40:24.200Z,998.41
2019-02-09T08:41:24.296Z,998.38
2019-02-09T08:42:24.257Z,998.41
2019-02-09T08:43:24.458Z,998.39
2019-02-09T08:44:24.187Z,998.40
2019-02-09T08:45:24.314Z,998.45
2019-02-09T08:46:24.359Z,998.39
2019-02-09T08:47:24.230Z,998.44
2019-02-09T08:48:24.170Z,998.44
2019-02-09T08:49:24.147Z,998.44
2019-02-09T08:50:24.152Z,998.44
2019-02-09T08:51:24.141Z,998.46
2019-02-09T08:52:24.225Z,998.52
2019-02-09T08:53:24.158Z,998.57
2019-02-09T08:54:24.168Z,998.58
2019-02-09T08:55:24.167Z,998.56
2019-02-09T08:56:24.164Z,998.62
2019-02-09T08:57:24.201Z,998.50
2019-02-09T08:58:24.230Z,998.59
2019-02-09T08:59:24.195Z,998.58
2019-02-09T09:00:24.192Z,998.66
2019-02-09T09:01:24.202Z,998.67
2019-02-09T09:02:24.217Z,998.71
2019-02-09T09:03:24.229Z,998.69
2019-02-09T09:04:24.221Z,998.65
2019-02-09T09:05:24.225Z,998.69
2019-02-09T09:06:24.261Z,998.65
2019-02-09T09:07:24.218Z,998.71
2019-02-09T09:08:24.276Z,998.66
2019-02-09T09:09:24.250Z,998.70
2019-02-09T09:10:24.257Z,998.65
2019-02-09T09:11:24.268Z,998.67
2019-02-09T09:12:24.287Z,998.68
2019-02-09T09:13:24.332Z,998.68
2019-02-09T09:14:24.317Z,998.65
2019-02-09T09:15:24.297Z,998.67
2019-02-09T09:16:24.336Z,998.62
2019-02-09T09:17:24.562Z,998.59
2019-02-09T09:18:24.437Z,998.55
2019-02-09T09:19:24.332Z,998.61
2019-02-09T09:20:24.652Z,998.56
2019-02-09T09:21:24.464Z,998.53
2019-02-09T09:22:24.778Z,998.55
2019-02-09T09:23:24.338Z,998.58
2019-02-09T09:24:24.349Z,998.63
2019-02-09T09:25:24.435Z,998.70
2019-02-09T09:26:24.335Z,998.71
2019-02-09T09:27:24.454Z,998.68
2019-02-09T09:28:24.339Z,998.62
2019-02-09T09:29:24.346Z,998.66
2019-02-09T09:30:24.391Z,998.66
2019-02-09T09:31:24.421Z,998.67
2019-02-09T09:32:28.783Z,998.67
2019-02-09T09:33:24.376Z,998.75
2019-02-09T09:34:24.425Z,998.69
2019-02-09T09:35:24.418Z,998.76
2019-02-09T09:36:24.487Z,998.76
2019-02-09T09:37:24.430Z,998.76
2019-02-09T09:38:24.408Z,998.77
2019-02-09T09:39:24.381Z,998.83
2019-02-09T09:40:24.411Z,998.86
2019-02-09T09:41:24.465Z,998.86
2019-02-09T09:42:24.433Z,998.86
2019-02-09T09:43:24.557Z,998.84
2019-02-09T09:44:24.426Z,998.86
2019-02-09T09:45:24.431Z,998.85
2019-02-09T09:46:24.492Z,998.94
2019-02-09T09:47:24.433Z,998.84
2019-02-09T09:48:24.451Z,998.97
2019-02-09T09:49:24.437Z,998.93
2019-02-09T09:50:24.439Z,998.90
2019-02-09T09:51:24.475Z,998.96
2019-02-09T09:52:24.472Z,998.94
2019-02-09T09:53:24.469Z,998.91
2019-02-09T09:54:24.497Z,998.99
2019-02-09T09:55:24.472Z,998.99
2019-02-09T09:56:24.499Z,999.01
2019-02-09T09:57:24.503Z,999.00
2019-02-09T09:58:24.555Z,998.94
2019-02-09T09:59:24.495Z,998.97
2019-02-09T10:00:24.509Z,999.04
2019-02-09T10:01:24.560Z,999.02
2019-02-09T10:02:24.550Z,999.05
2019-02-09T10:03:24.734Z,999.00
2019-02-09T10:04:24.801Z,999.00
2019-02-09T10:05:24.520Z,998.94
2019-02-09T10:06:24.617Z,999.04
2019-02-09T10:07:24.540Z,999.04
2019-02-09T10:08:24.566Z,999.07
2019-02-09T10:09:24.613Z,999.05
2019-02-09T10:10:24.740Z,999.04
2019-02-09T10:11:24.564Z,998.92
2019-02-09T10:12:24.584Z,999.04
2019-02-09T10:13:24.604Z,999.07
2019-02-09T10:14:24.636Z,999.12
2019-02-09T10:15:24.614Z,999.11
2019-02-09T10:16:24.597Z,999.08
2019-02-09T10:17:24.613Z,999.10
2019-02-09T10:18:24.605Z,999.07
2019-02-09T10:19:24.670Z,999.08
2019-02-09T10:20:24.660Z,999.05
2019-02-09T10:21:24.736Z,999.05
2019-02-09T10:22:24.704Z,999.06
2019-02-09T10:23:24.855Z,999.02
2019-02-09T10:24:24.701Z,999.14
2019-02-09T10:25:24.872Z,999.09
2019-02-09T10:26:24.743Z,999.06
2019-02-09T10:27:24.802Z,999.08
2019-02-09T10:28:25.160Z,999.11
2019-02-09T10:29:24.660Z,999.02
2019-02-09T10:30:24.810Z,999.10
2019-02-09T10:31:24.846Z,999.10
2019-02-09T10:32:24.708Z,999.08
2019-02-09T10:33:24.778Z,999.08
2019-02-09T10:34:24.716Z,999.17
2019-02-09T10:35:24.706Z,999.14
2019-02-09T10:36:24.730Z,999.17
2019-02-09T10:37:24.725Z,999.08
2019-02-09T10:38:24.771Z,999.12
2019-02-09T10:39:24.763Z,999.16
2019-02-09T10:40:24.762Z,999.22
2019-02-09T10:41:24.750Z,999.29
2019-02-09T10:42:24.724Z,999.16
2019-02-09T10:43:24.727Z,999.19
2019-02-09T10:44:24.795Z,999.12
2019-02-09T10:45:24.747Z,999.10
2019-02-09T10:46:24.753Z,999.03
2019-02-09T10:47:24.831Z,999.10
2019-02-09T10:48:24.798Z,999.12
2019-02-09T10:49:24.809Z,999.07
2019-02-09T10:50:24.765Z,999.13
2019-02-09T10:51:24.780Z,999.07
2019-02-09T10:52:24.851Z,999.17
2019-02-09T10:53:24.778Z,999.19
2019-02-09T10:54:24.814Z,999.13
2019-02-09T10:55:24.795Z,999.09
2019-02-09T10:56:24.799Z,999.11
2019-02-09T10:57:24.841Z,999.11
2019-02-09T10:58:24.863Z,999.05
2019-02-09T10:59:24.842Z,999.15
2019-02-09T11:00:24.822Z,999.15
2019-02-09T11:01:24.848Z,999.11
2019-02-09T11:02:24.837Z,999.13
2019-02-09T11:03:24.891Z,999.11
2019-02-09T11:04:24.859Z,999.10
2019-02-09T11:05:24.910Z,999.14
2019-02-09T11:06:24.865Z,999.05
2019-02-09T11:07:24.897Z,999.09
2019-02-09T11:08:24.906Z,999.24
2019-02-09T11:09:24.945Z,999.17
2019-02-09T11:10:24.901Z,999.17
2019-02-09T11:11:24.917Z,999.18
2019-02-09T11:12:24.922Z,999.17
2019-02-09T11:13:24.945Z,999.22
2019-02-09T11:14:25.011Z,999.16
2019-02-09T11:15:24.973Z,999.11
2019-02-09T11:16:24.950Z,999.14
2019-02-09T11:17:25.016Z,999.10
2019-02-09T11:18:24.939Z,999.16
2019-02-09T11:19:25.208Z,999.05
2019-02-09T11:20:25.003Z,999.05
2019-02-09T11:21:25.002Z,999.04
2019-02-09T11:22:24.993Z,999.06
2019-02-09T11:23:25.134Z,999.16
2019-02-09T11:24:25.011Z,999.12
2019-02-09T11:25:25.044Z,999.09
2019-02-09T11:26:25.083Z,999.12
2019-02-09T11:27:25.027Z,999.14
2019-02-09T11:28:25.048Z,999.09
2019-02-09T11:29:25.053Z,999.26
2019-02-09T11:30:25.021Z,999.24
2019-02-09T11:31:25.168Z,999.26
2019-02-09T11:32:25.060Z,999.26
2019-02-09T11:33:25.038Z,999.21
2019-02-09T11:34:25.069Z,999.24
2019-02-09T11:35:25.084Z,999.27
2019-02-09T11:36:25.098Z,999.23
2019-02-09T11:37:25.061Z,999.22
2019-02-09T11:38:25.087Z,999.27
2019-02-09T11:39:25.083Z,999.28
2019-02-09T11:40:25.079Z,999.24
2019-02-09T11:41:25.104Z,999.33
2019-02-09T11:42:25.144Z,999.38
2019-02-09T11:43:25.179Z,999.25
2019-02-09T11:44:25.164Z,999.26
2019-02-09T11:45:25.883Z,999.29
2019-02-09T11:46:25.758Z,999.34
2019-02-09T11:47:25.223Z,999.31
2019-02-09T11:48:25.172Z,999.37
2019-02-09T11:49:25.183Z,999.40
2019-02-09T11:50:25.178Z,999.29
2019-02-09T11:51:25.183Z,999.33
2019-02-09T11:52:25.212Z,999.25
2019-02-09T11:53:25.182Z,999.27
2019-02-09T11:54:25.988Z,999.32
2019-02-09T11:55:25.179Z,999.33
2019-02-09T11:56:25.216Z,999.33
2019-02-09T11:57:25.224Z,999.28
2019-02-09T11:58:25.253Z,999.30
2019-02-09T11:59:25.235Z,999.27
2019-02-09T12:00:25.230Z,999.17
2019-02-09T12:01:25.384Z,999.31
2019-02-09T12:02:25.274Z,999.25
2019-02-09T12:03:25.254Z,999.35
2019-02-09T12:04:25.344Z,999.26
2019-02-09T12:05:25.298Z,999.35
2019-02-09T12:06:25.321Z,999.27
2019-02-09T12:07:25.317Z,999.29
2019-02-09T12:08:25.316Z,999.34
2019-02-09T12:09:25.260Z,999.19
2019-02-09T12:10:25.285Z,999.25
2019-02-09T12:11:25.338Z,999.37
2019-02-09T12:12:25.409Z,999.28
2019-02-09T12:13:25.324Z,999.25
2019-02-09T12:14:25.328Z,999.24
2019-02-09T12:15:25.346Z,999.30
2019-02-09T12:16:25.323Z,999.25
2019-02-09T12:17:25.396Z,999.20
2019-02-09T12:18:25.326Z,999.27
2019-02-09T12:19:25.405Z,999.29
2019-02-09T12:20:25.420Z,999.27
2019-02-09T12:21:25.366Z,999.23
2019-02-09T12:22:25.359Z,999.19
2019-02-09T12:23:25.396Z,999.22